Plover, Wisconsin
Current Conditions -  °F | °C
As of 6:15 PM on Saturday 25 Oct 2014 (Local Time) from KSTE Reporting Station
Clear Clear  
Wind Chill: 55°   Ceiling: Unl
Heat Index: 55°   Visibility: 10mi
Dew Point: 28°   Wind: 8mph
Humidity: 36%   Direction: 280°W
Pressure: 29.92"   Gusts: 17mph
Location:  44.45°N, 89.54°W
Report Text: KSTE 252315Z AUTO 28007G15KT 10SM CLR 13/M02 A2992 RMK AO2 T01271021
Loading
Personal Weather Stations






























Interactive Weather Map
Tropical Storm Tracking
New forecast layout! Learn more

10-Day Weather Forecast

Advertisements
Track Severe Weather on mobile